Historyczne dane pomiarowe

Dodano dane terminowe – wersja testowa.

Dane z okresu 1951-2019

Wersja bazy: 1.34 [2019-03-16, lista zmian], aktualizacja planowana na 2019-04-15

Dane meteo z obszaru Polski uzyskane na podstawie danych udostępnionych przez Instytut Meteorologii i Gospodarki Wodnej – Państwowy Instytut Badawczy.

 

Wybierz Datę:    

       

TemperaturaWilgotnośćWiatrCiśnienieOpadyŚniegCzas trwania zjawisk
 Stacja t tx tn tng RH VA  wxwx mslp ppp RRR   cm mm wxwxwxwxwxwxwx
1991-02-14 -5.3 -2.8 -6.5-10.2 78.0- 5.7 3.3---- 0.0-- 25---------
1991-02-15 -6.6 -1.9-10.3-16.0 69.3- 1.7 1.7---- 0.0-- 23---------
1991-02-16 -9.2 -5.0-14.1-20.8 81.8- 7.3 0.7---- 0.9-- 21---------
1991-02-17 -4.5 -0.2 -9.3-15.0 82.5- 4.7 1.7---- 0.0-- 21---------
1991-02-18 -0.6 2.8 -5.2-12.9 74.8- 4.3 3.3---- 0.0-- 19---------
1991-02-19 -4.1 3.2 -9.1-14.0 77.0- 2.7 0.0---- 0.0-- 17---------
1991-02-20 -1.5 3.1 -6.0-11.5 81.0- 6.7 0.0---- 0.0-- 16---------
1991-02-21 -0.6 6.3 -5.8-11.4 84.0- 3.7 0.3---- 0.0-- 15---------
1991-02-22 2.2 10.0 -3.0 -6.7 76.3- 6.0 0.7---- 0.3-- 13---------
1991-02-23 4.3 9.1 1.1 -2.0 70.3- 4.0 1.7---- 0.1-- 11---------
1991-02-24 4.7 7.2 3.3 -1.6 87.8- 8.0 1.0---- 0.0-- 6---------
1991-02-25 4.7 11.1 -1.3 -3.9 81.0- 5.3 1.7---- 0.1-- 3---------
1991-02-26 4.3 7.6 2.2 -0.2 78.3- 7.3 1.7---- 0.1------------
1991-02-27 0.8 2.7 -1.3 -1.4 71.3- 7.3 2.3---- 0.0------------
1991-02-28 0.2 1.5 -0.4 -1.2 78.5- 8.0 1.0---- 0.0------------
1991-03-01 0.0 4.8 -3.8 -6.5 79.0- 1.3 1.7---- 0.0------------
1991-03-02 0.6 5.2 -2.9 -5.1 75.3- 6.3 1.3---- 0.0------------
1991-03-03 2.7 7.7 -0.1 -2.3 74.5- 8.0 0.7---- 0.0------------
1991-03-04 4.7 9.7 -0.1 -3.7 80.5- 6.0 1.0---- 0.0------------
1991-03-05 4.5 7.4 2.6 -0.8 77.0- 8.0 0.0---- 0.0------------
1991-03-06 1.3 5.5 -0.7 -3.2 84.8- 6.7 3.0---- 0.0------------
1991-03-07 3.2 9.9 -1.1 -3.9 68.8- 0.7 2.0---- 0.0------------
1991-03-08 7.0 14.4 1.9 -2.2 73.5- 4.0 1.0---- 0.0------------
1991-03-09 7.2 15.1 3.0 -1.5 74.3- 7.3 2.0---- 0.0------------
1991-03-10 2.8 7.2 0.2 -3.2 88.3- 6.0 1.0---- 0.0------------
1991-03-11 4.7 7.7 2.4 -0.1 91.3- 8.0 0.3---- 0.0------------
1991-03-12 7.5 13.8 2.8 -1.0 77.5- 7.3 1.0---- 0.2------------
1991-03-13 9.1 14.2 5.6 2.5 70.5- 5.7 2.0---- 0.0------------
1991-03-14 7.9 17.1 1.6 -2.5 71.8- 2.7 0.3---- 0.0------------
1991-03-15 8.6 18.4 0.8 -3.0 67.5- 0.0 1.0---- 0.0------------
221.5 ms

 

Źródłem pochodzenia danych jest Instytut Meteorologii i Gospodarki Wodnej – Państwowy Instytut Badawczy. Dane Instytutu Meteorologii i Gospodarki Wodnej – Państwowego Instytutu Badawczego zostały przetworzone.

Dane źródłowe można odnaleźć na stronie https://dane.imgw.pl